createdAt,value
2018-07-01T00:00:51.607Z,20.80
2018-07-01T00:03:19.962Z,20.80
2018-07-01T00:05:48.424Z,20.80
2018-07-01T00:08:16.827Z,20.80
2018-07-01T00:10:45.203Z,20.80
2018-07-01T00:13:13.507Z,20.80
2018-07-01T00:15:41.867Z,20.90
2018-07-01T00:18:10.213Z,20.80
2018-07-01T00:20:38.728Z,20.80
2018-07-01T00:23:07.352Z,20.80
2018-07-01T00:25:35.743Z,20.80
2018-07-01T00:28:04.164Z,20.80
2018-07-01T00:30:32.548Z,20.80
2018-07-01T00:33:00.865Z,20.80
2018-07-01T00:35:30.136Z,20.70
2018-07-01T00:37:58.538Z,20.70
2018-07-01T00:40:26.925Z,20.60
2018-07-01T00:42:55.291Z,20.60
2018-07-01T00:45:23.689Z,20.60
2018-07-01T00:47:52.023Z,20.50
2018-07-01T00:50:20.426Z,20.50
2018-07-01T00:52:48.837Z,20.40
2018-07-01T00:55:17.229Z,20.40
2018-07-01T00:57:45.532Z,20.40
2018-07-01T01:00:13.897Z,20.50
2018-07-01T01:02:42.269Z,20.50
2018-07-01T01:05:10.670Z,20.40
2018-07-01T01:07:39.014Z,20.40
2018-07-01T01:10:07.405Z,20.40
2018-07-01T01:12:35.822Z,20.30
2018-07-01T01:15:04.260Z,20.20
2018-07-01T01:17:32.693Z,20.10
2018-07-01T01:22:29.308Z,20.00
2018-07-01T01:24:57.703Z,19.90
2018-07-01T01:27:26.042Z,19.80
2018-07-01T01:29:54.377Z,19.80
2018-07-01T01:32:22.944Z,19.80
2018-07-01T01:34:51.446Z,19.80
2018-07-01T01:37:19.949Z,19.70
2018-07-01T01:39:48.350Z,19.70
2018-07-01T01:42:22.220Z,19.70
2018-07-01T01:44:56.001Z,19.60
2018-07-01T01:49:32.705Z,19.60
2018-07-01T01:52:04.664Z,19.40
2018-07-01T01:54:38.305Z,19.40
2018-07-01T01:57:13.361Z,19.40
2018-07-01T01:59:47.388Z,19.40
2018-07-01T02:02:22.957Z,19.30
2018-07-01T02:07:34.071Z,19.30
2018-07-01T02:10:02.546Z,19.20
2018-07-01T02:12:30.991Z,19.10
2018-07-01T02:15:03.089Z,19.00
2018-07-01T02:17:35.106Z,19.00
2018-07-01T02:20:03.691Z,19.00
2018-07-01T02:23:08.160Z,19.00
2018-07-01T02:25:37.920Z,19.00
2018-07-01T02:28:06.357Z,18.90
2018-07-01T02:30:34.725Z,18.80
2018-07-01T02:33:03.119Z,18.60
2018-07-01T02:35:31.580Z,18.60
2018-07-01T02:37:59.879Z,18.60
2018-07-01T02:40:28.217Z,18.60
2018-07-01T02:42:56.629Z,18.50
2018-07-01T02:45:25.122Z,18.50
2018-07-01T02:47:53.515Z,18.40
2018-07-01T02:50:21.918Z,18.30
2018-07-01T02:52:50.250Z,18.30
2018-07-01T02:55:18.582Z,18.40
2018-07-01T02:57:46.913Z,18.40
2018-07-01T03:00:15.294Z,18.50
2018-07-01T03:02:43.617Z,18.60
2018-07-01T03:05:11.989Z,18.60
2018-07-01T03:07:40.311Z,18.70
2018-07-01T03:10:08.738Z,18.70
2018-07-01T03:12:37.061Z,18.70
2018-07-01T03:15:05.405Z,18.60
2018-07-01T03:17:33.818Z,18.40
2018-07-01T03:20:03.592Z,18.30
2018-07-01T03:22:31.977Z,18.30
2018-07-01T03:25:00.325Z,18.20
2018-07-01T03:27:28.675Z,18.10
2018-07-01T03:29:57.081Z,18.10
2018-07-01T03:32:25.450Z,18.00
2018-07-01T03:34:53.925Z,18.00
2018-07-01T03:39:50.401Z,17.90
2018-07-01T03:42:18.712Z,17.90
2018-07-01T03:44:47.076Z,17.80
2018-07-01T03:47:15.412Z,17.80
2018-07-01T03:49:43.761Z,17.80
2018-07-01T03:52:12.045Z,17.80
2018-07-01T03:54:40.395Z,17.70
2018-07-01T03:57:08.802Z,17.60
2018-07-01T03:59:37.278Z,17.50
2018-07-01T04:02:05.923Z,17.50
2018-07-01T04:04:34.306Z,17.50
2018-07-01T04:07:02.662Z,17.50
2018-07-01T04:09:33.489Z,17.40
2018-07-01T04:12:02.055Z,17.30
2018-07-01T04:14:30.890Z,17.30
2018-07-01T04:16:59.213Z,17.40
2018-07-01T04:19:35.790Z,17.50
2018-07-01T04:22:05.482Z,17.40
2018-07-01T04:24:34.383Z,17.50
2018-07-01T04:27:02.697Z,17.50
2018-07-01T04:29:31.173Z,17.50
2018-07-01T04:31:59.689Z,17.50
2018-07-01T04:34:28.064Z,17.50
2018-07-01T04:36:56.414Z,17.50
2018-07-01T04:39:25.030Z,17.30
2018-07-01T04:41:53.381Z,17.30
2018-07-01T04:44:21.799Z,17.30
2018-07-01T04:46:50.144Z,17.30
2018-07-01T04:49:18.458Z,17.30
2018-07-01T04:51:46.773Z,17.30
2018-07-01T04:54:15.220Z,17.40
2018-07-01T04:59:13.250Z,17.40
2018-07-01T05:01:41.652Z,17.50
2018-07-01T05:04:10.074Z,17.50
2018-07-01T05:06:38.394Z,17.60
2018-07-01T05:09:10.440Z,17.70
2018-07-01T05:11:39.264Z,17.60
2018-07-01T05:14:07.580Z,17.60
2018-07-01T05:16:36.872Z,17.60
2018-07-01T05:21:33.646Z,17.70
2018-07-01T05:24:02.058Z,17.80
2018-07-01T05:26:30.398Z,17.90
2018-07-01T05:28:58.757Z,18.00
2018-07-01T05:31:27.216Z,18.10
2018-07-01T05:33:56.121Z,18.10
2018-07-01T05:38:53.114Z,18.10
2018-07-01T05:41:21.723Z,18.20
2018-07-01T05:43:50.083Z,18.10
2018-07-01T05:46:18.479Z,18.10
2018-07-01T05:48:46.846Z,18.20
2018-07-01T05:51:15.200Z,18.30
2018-07-01T05:53:43.684Z,18.40
2018-07-01T05:56:12.150Z,18.50
2018-07-01T05:58:40.494Z,18.60
2018-07-01T06:01:08.889Z,18.50
2018-07-01T06:03:37.282Z,18.60
2018-07-01T06:06:05.785Z,18.60
2018-07-01T06:08:34.220Z,18.70
2018-07-01T06:11:02.660Z,18.70
2018-07-01T06:13:31.006Z,18.70
2018-07-01T06:15:59.348Z,18.80
2018-07-01T06:18:27.714Z,18.80
2018-07-01T06:20:56.198Z,18.80
2018-07-01T06:23:24.515Z,18.90
2018-07-01T06:25:52.823Z,19.00
2018-07-01T06:28:21.161Z,19.00
2018-07-01T06:30:49.507Z,19.10
2018-07-01T06:33:17.868Z,19.20
2018-07-01T06:35:46.316Z,19.00
2018-07-01T06:38:14.728Z,19.00
2018-07-01T06:40:43.050Z,19.10
2018-07-01T06:43:11.547Z,19.10
2018-07-01T06:45:39.883Z,19.20
2018-07-01T06:48:08.389Z,19.20
2018-07-01T06:50:36.858Z,19.20
2018-07-01T06:53:05.538Z,19.40
2018-07-01T06:55:33.911Z,19.40
2018-07-01T06:58:02.449Z,19.40
2018-07-01T07:00:30.870Z,19.50
2018-07-01T07:02:59.281Z,19.40
2018-07-01T07:05:27.725Z,19.40
2018-07-01T07:07:56.191Z,19.50
2018-07-01T07:10:24.500Z,19.50
2018-07-01T07:12:52.862Z,19.60
2018-07-01T07:15:21.265Z,19.70
2018-07-01T07:17:49.609Z,19.80
2018-07-01T07:20:18.062Z,19.80
2018-07-01T07:22:46.407Z,19.90
2018-07-01T07:25:15.003Z,20.00
2018-07-01T07:27:43.323Z,20.20
2018-07-01T07:30:11.777Z,20.20
2018-07-01T07:32:40.113Z,20.40
2018-07-01T07:35:08.518Z,20.30
2018-07-01T07:37:37.872Z,20.40
2018-07-01T07:40:06.318Z,20.60
2018-07-01T07:47:31.320Z,20.80
2018-07-01T07:49:59.670Z,20.90
2018-07-01T07:52:28.013Z,20.90
2018-07-01T07:54:56.376Z,21.00
2018-07-01T07:59:53.084Z,21.10
2018-07-01T08:02:22.613Z,21.20
2018-07-01T08:04:50.997Z,21.30
2018-07-01T08:07:19.429Z,21.50
2018-07-01T08:09:47.835Z,21.60
2018-07-01T08:12:16.227Z,21.60
2018-07-01T08:14:44.617Z,21.50
2018-07-01T08:17:13.053Z,21.50
2018-07-01T08:19:41.437Z,21.50
2018-07-01T08:22:09.775Z,21.50
2018-07-01T08:24:38.351Z,21.70
2018-07-01T08:27:07.338Z,21.80
2018-07-01T08:29:35.873Z,21.80
2018-07-01T08:32:04.237Z,21.70
2018-07-01T08:34:32.644Z,21.90
2018-07-01T08:37:01.056Z,22.00
2018-07-01T08:42:35.040Z,22.10
2018-07-01T08:45:05.313Z,22.20
2018-07-01T08:47:34.236Z,22.20
2018-07-01T08:50:02.840Z,22.40
2018-07-01T08:52:31.443Z,22.40
2018-07-01T08:54:59.626Z,22.60
2018-07-01T08:59:56.266Z,22.50
2018-07-01T09:02:24.697Z,22.40
2018-07-01T09:04:53.046Z,22.50
2018-07-01T09:09:50.313Z,22.50
2018-07-01T09:12:18.690Z,22.70
2018-07-01T09:17:15.523Z,22.90
2018-07-01T09:22:12.155Z,23.00
2018-07-01T09:24:40.525Z,23.00
2018-07-01T09:27:08.877Z,23.00
2018-07-01T09:29:43.037Z,22.90
2018-07-01T09:32:11.585Z,22.90
2018-07-01T09:34:39.971Z,23.00
2018-07-01T09:37:08.707Z,23.10
2018-07-01T09:39:37.123Z,23.00
2018-07-01T09:42:05.680Z,23.00
2018-07-01T09:44:34.034Z,23.10
2018-07-01T09:47:02.376Z,23.00
2018-07-01T09:49:30.792Z,22.80
2018-07-01T09:51:59.209Z,22.70
2018-07-01T09:54:27.593Z,22.80
2018-07-01T09:56:55.946Z,22.90
2018-07-01T09:59:24.421Z,22.90
2018-07-01T10:01:52.798Z,23.00
2018-07-01T10:04:21.162Z,23.20
2018-07-01T10:06:49.510Z,23.30
2018-07-01T10:09:17.867Z,23.40
2018-07-01T10:11:46.367Z,23.40
2018-07-01T10:14:14.790Z,23.40
2018-07-01T10:16:43.832Z,23.40
2018-07-01T10:19:12.169Z,23.40
2018-07-01T10:21:40.503Z,23.30
2018-07-01T10:24:08.886Z,23.40
2018-07-01T10:26:37.378Z,23.40
2018-07-01T10:29:09.079Z,23.40
2018-07-01T10:31:38.261Z,23.50
2018-07-01T10:34:07.562Z,23.70
2018-07-01T10:36:36.025Z,23.80
2018-07-01T10:39:12.778Z,23.90
2018-07-01T10:44:09.385Z,23.60
2018-07-01T10:46:37.757Z,23.60
2018-07-01T10:49:06.292Z,23.60
2018-07-01T10:51:35.095Z,23.60
2018-07-01T10:54:03.574Z,23.70
2018-07-01T10:56:32.001Z,23.80
2018-07-01T10:59:00.500Z,23.60
2018-07-01T11:03:57.277Z,23.50
2018-07-01T11:06:26.685Z,23.70
2018-07-01T11:08:55.057Z,23.90
2018-07-01T11:11:23.454Z,23.90
2018-07-01T11:13:51.885Z,24.00
2018-07-01T11:16:20.270Z,24.00
2018-07-01T11:18:48.722Z,24.20
2018-07-01T11:21:17.060Z,24.20
2018-07-01T11:23:45.403Z,24.30
2018-07-01T11:26:13.810Z,24.40
2018-07-01T11:28:42.206Z,24.30
2018-07-01T11:31:10.630Z,24.30
2018-07-01T11:33:38.982Z,24.30
2018-07-01T11:36:07.372Z,24.40
2018-07-01T11:38:35.763Z,24.50
2018-07-01T11:41:04.129Z,24.50
2018-07-01T11:43:32.538Z,24.40
2018-07-01T11:46:00.912Z,24.30
2018-07-01T11:50:57.509Z,24.50
2018-07-01T11:53:25.908Z,24.50
2018-07-01T11:55:54.307Z,24.50
2018-07-01T11:58:23.145Z,24.70
2018-07-01T12:00:51.649Z,24.60
2018-07-01T12:03:19.987Z,24.70
2018-07-01T12:05:48.398Z,24.70
2018-07-01T12:08:16.786Z,24.70
2018-07-01T12:10:45.154Z,24.60
2018-07-01T12:13:13.483Z,24.60
2018-07-01T12:15:41.856Z,24.70
2018-07-01T12:18:10.257Z,24.80
2018-07-01T12:20:38.612Z,24.80
2018-07-01T12:23:06.985Z,24.70
2018-07-01T12:30:31.845Z,25.00
2018-07-01T12:33:00.220Z,25.00
2018-07-01T12:35:28.655Z,25.00
2018-07-01T12:37:57.000Z,25.20
2018-07-01T12:40:25.464Z,25.30
2018-07-01T12:42:53.924Z,25.40
2018-07-01T12:45:22.269Z,25.20
2018-07-01T12:47:50.710Z,25.20
2018-07-01T12:50:19.086Z,25.00
2018-07-01T12:52:47.442Z,25.00
2018-07-01T12:55:15.797Z,25.10
2018-07-01T12:57:44.155Z,25.20
2018-07-01T13:00:12.579Z,25.40
2018-07-01T13:02:40.939Z,25.50
2018-07-01T13:05:09.301Z,25.60
2018-07-01T13:10:06.182Z,25.80
2018-07-01T13:12:34.639Z,25.80
2018-07-01T13:15:03.081Z,25.80
2018-07-01T13:17:31.474Z,25.70
2018-07-01T13:19:59.892Z,25.80
2018-07-01T13:22:28.280Z,25.80
2018-07-01T13:24:56.664Z,25.90
2018-07-01T13:27:25.028Z,26.00
2018-07-01T13:29:53.358Z,26.10
2018-07-01T13:32:21.717Z,26.20
2018-07-01T13:34:50.082Z,26.10
2018-07-01T13:37:18.409Z,26.20
2018-07-01T13:39:46.789Z,26.20
2018-07-01T13:42:15.123Z,26.40
2018-07-01T13:44:43.534Z,26.40
2018-07-01T13:47:11.882Z,26.50
2018-07-01T13:49:40.326Z,26.50
2018-07-01T13:52:08.705Z,26.60
2018-07-01T13:54:37.173Z,26.20
2018-07-01T13:57:05.463Z,26.20
2018-07-01T13:59:33.875Z,26.20
2018-07-01T14:02:02.345Z,26.20
2018-07-01T14:04:30.701Z,26.30
2018-07-01T14:06:59.076Z,26.40
2018-07-01T14:09:27.421Z,26.60
2018-07-01T14:11:57.710Z,26.50
2018-07-01T14:14:26.042Z,26.40
2018-07-01T14:16:54.433Z,26.50
2018-07-01T14:19:22.724Z,26.60
2018-07-01T14:21:51.098Z,26.80
2018-07-01T14:24:19.450Z,26.90
2018-07-01T14:26:47.865Z,26.90
2018-07-01T14:29:16.182Z,26.80
2018-07-01T14:31:44.593Z,26.80
2018-07-01T14:34:12.924Z,27.00
2018-07-01T14:36:41.267Z,27.00
2018-07-01T14:39:11.687Z,27.00
2018-07-01T14:41:40.078Z,27.00
2018-07-01T14:44:08.404Z,27.10
2018-07-01T14:46:36.751Z,27.10
2018-07-01T14:51:33.980Z,27.00
2018-07-01T14:54:02.323Z,27.00
2018-07-01T14:56:30.802Z,27.00
2018-07-01T14:58:59.166Z,27.20
2018-07-01T15:01:27.537Z,27.20
2018-07-01T15:03:55.946Z,27.20
2018-07-01T15:06:24.278Z,27.50
2018-07-01T15:08:52.642Z,27.80
2018-07-01T15:11:20.968Z,28.00
2018-07-01T15:13:49.361Z,27.90
2018-07-01T15:16:17.740Z,27.90
2018-07-01T15:18:46.153Z,28.00
2018-07-01T15:21:14.512Z,27.80
2018-07-01T15:23:42.838Z,27.60
2018-07-01T15:26:11.201Z,27.40
2018-07-01T15:28:39.576Z,27.00
2018-07-01T15:31:08.558Z,26.90
2018-07-01T15:36:05.261Z,26.90
2018-07-01T15:38:33.605Z,26.80
2018-07-01T15:41:02.012Z,26.80
2018-07-01T15:43:30.473Z,26.80
2018-07-01T15:45:58.971Z,26.80
2018-07-01T15:48:27.365Z,26.70
2018-07-01T15:50:55.767Z,26.80
2018-07-01T15:53:24.161Z,26.70
2018-07-01T15:55:52.629Z,26.80
2018-07-01T15:58:21.054Z,26.70
2018-07-01T16:00:49.545Z,26.80
2018-07-01T16:03:17.896Z,26.90
2018-07-01T16:05:46.295Z,26.80
2018-07-01T16:08:14.641Z,27.00
2018-07-01T16:10:43.024Z,26.90
2018-07-01T16:13:11.409Z,26.80
2018-07-01T16:15:39.810Z,26.70
2018-07-01T16:18:08.160Z,26.80
2018-07-01T16:20:36.557Z,26.90
2018-07-01T16:23:05.219Z,26.70
2018-07-01T16:25:42.887Z,26.70
2018-07-01T16:28:16.890Z,26.80
2018-07-01T16:30:45.285Z,26.80
2018-07-01T16:35:41.869Z,26.70
2018-07-01T16:38:10.231Z,26.70
2018-07-01T16:40:38.664Z,26.60
2018-07-01T16:43:07.141Z,26.50
2018-07-01T16:45:35.539Z,26.50
2018-07-01T16:48:04.007Z,26.50
2018-07-01T16:50:32.339Z,26.50
2018-07-01T16:53:00.714Z,26.70
2018-07-01T16:55:29.141Z,26.50
2018-07-01T17:00:25.859Z,26.50
2018-07-01T17:02:54.200Z,26.40
2018-07-01T17:05:22.702Z,26.40
2018-07-01T17:07:51.175Z,26.40
2018-07-01T17:10:19.567Z,26.40
2018-07-01T17:12:47.889Z,26.30
2018-07-01T17:15:16.235Z,26.30
2018-07-01T17:17:44.634Z,26.20
2018-07-01T17:20:12.997Z,26.10
2018-07-01T17:22:41.371Z,26.00
2018-07-01T17:25:09.714Z,26.00
2018-07-01T17:27:38.140Z,25.90
2018-07-01T17:30:06.618Z,25.90
2018-07-01T17:32:40.455Z,25.80
2018-07-01T17:35:08.817Z,25.70
2018-07-01T17:37:37.284Z,25.70
2018-07-01T17:40:05.721Z,25.70
2018-07-01T17:42:36.902Z,25.50
2018-07-01T17:45:05.374Z,25.50
2018-07-01T17:47:33.840Z,25.50
2018-07-01T17:50:02.258Z,25.40
2018-07-01T17:52:30.736Z,25.40
2018-07-01T17:57:27.770Z,25.40
2018-07-01T17:59:56.190Z,25.40
2018-07-01T18:04:52.873Z,25.20
2018-07-01T18:07:21.232Z,25.10
2018-07-01T18:09:49.646Z,25.20
2018-07-01T18:12:18.084Z,25.20
2018-07-01T18:14:46.449Z,25.20
2018-07-01T18:17:15.015Z,25.20
2018-07-01T18:19:43.390Z,25.10
2018-07-01T18:22:14.825Z,25.10
2018-07-01T18:24:53.953Z,25.00
2018-07-01T18:27:09.930Z,25.00
2018-07-01T18:29:38.442Z,24.90
2018-07-01T18:32:07.093Z,24.90
2018-07-01T18:34:35.630Z,24.80
2018-07-01T18:37:04.074Z,24.80
2018-07-01T18:39:32.847Z,24.70
2018-07-01T18:42:01.333Z,24.60
2018-07-01T18:44:29.821Z,24.50
2018-07-01T18:46:58.231Z,24.50
2018-07-01T18:49:26.698Z,24.50
2018-07-01T18:54:23.754Z,24.40
2018-07-01T18:56:52.097Z,24.30
2018-07-01T18:59:20.537Z,24.30
2018-07-01T19:01:48.951Z,24.20
2018-07-01T19:04:17.305Z,24.20
2018-07-01T19:06:45.707Z,24.10
2018-07-01T19:09:14.189Z,24.00
2018-07-01T19:11:42.611Z,24.00
2018-07-01T19:14:11.006Z,24.00
2018-07-01T19:16:39.488Z,23.90
2018-07-01T19:19:07.929Z,23.80
2018-07-01T19:21:36.401Z,23.80
2018-07-01T19:24:05.037Z,23.70
2018-07-01T19:26:33.459Z,23.60
2018-07-01T19:29:01.826Z,23.50
2018-07-01T19:31:30.304Z,23.50
2018-07-01T19:33:58.754Z,23.40
2018-07-01T19:38:55.472Z,23.30
2018-07-01T19:41:23.895Z,23.30
2018-07-01T19:43:52.447Z,23.20
2018-07-01T19:46:20.980Z,23.10
2018-07-01T19:48:49.432Z,23.10
2018-07-01T19:51:17.840Z,23.10
2018-07-01T19:53:46.254Z,22.90
2018-07-01T19:56:14.658Z,22.90
2018-07-01T19:58:43.061Z,22.80
2018-07-01T20:01:11.471Z,22.80
2018-07-01T20:03:39.924Z,22.80
2018-07-01T20:06:08.391Z,22.80
2018-07-01T20:08:36.742Z,22.70
2018-07-01T20:11:05.244Z,22.60
2018-07-01T20:13:33.653Z,22.60
2018-07-01T20:16:02.135Z,22.50
2018-07-01T20:18:30.576Z,22.40
2018-07-01T20:20:58.967Z,22.40
2018-07-01T20:23:27.395Z,22.40
2018-07-01T20:25:55.871Z,22.40
2018-07-01T20:28:24.205Z,22.30
2018-07-01T20:30:52.642Z,22.20
2018-07-01T20:33:20.996Z,22.20
2018-07-01T20:35:49.403Z,22.10
2018-07-01T20:38:18.075Z,22.10
2018-07-01T20:40:46.441Z,22.10
2018-07-01T20:43:14.845Z,22.10
2018-07-01T20:45:43.347Z,22.10
2018-07-01T20:48:11.757Z,21.90
2018-07-01T20:50:40.178Z,21.80
2018-07-01T20:53:08.593Z,21.70
2018-07-01T20:55:37.415Z,21.90
2018-07-01T20:58:05.845Z,21.80
2018-07-01T21:00:34.434Z,21.90
2018-07-01T21:03:02.800Z,21.80
2018-07-01T21:05:31.500Z,21.90
2018-07-01T21:07:59.839Z,21.80
2018-07-01T21:10:28.405Z,21.70
2018-07-01T21:15:25.101Z,21.70
2018-07-01T21:17:53.490Z,21.60
2018-07-01T21:20:21.902Z,21.60
2018-07-01T21:25:18.616Z,21.60
2018-07-01T21:27:47.689Z,21.50
2018-07-01T21:32:44.578Z,21.30
2018-07-01T21:40:09.620Z,21.40
2018-07-01T21:42:38.201Z,21.40
2018-07-01T21:45:07.506Z,21.40
2018-07-01T21:47:36.786Z,21.40
2018-07-01T21:50:05.394Z,21.30
2018-07-01T21:52:33.771Z,21.30
2018-07-01T21:55:02.150Z,21.30
2018-07-01T21:57:30.575Z,21.30
2018-07-01T21:59:58.981Z,21.40
2018-07-01T22:02:27.430Z,21.30
2018-07-01T22:04:55.895Z,21.20
2018-07-01T22:07:24.282Z,21.00
2018-07-01T22:09:52.713Z,21.00
2018-07-01T22:12:37.932Z,20.90
2018-07-01T22:15:25.311Z,20.80
2018-07-01T22:17:54.380Z,20.80
2018-07-01T22:20:22.770Z,20.70
2018-07-01T22:22:51.138Z,20.70
2018-07-01T22:25:19.578Z,20.60
2018-07-01T22:27:47.908Z,20.50
2018-07-01T22:30:16.286Z,20.60
2018-07-01T22:35:12.928Z,20.40
2018-07-01T22:37:41.258Z,20.40
2018-07-01T22:40:09.674Z,20.30
2018-07-01T22:42:38.037Z,20.30
2018-07-01T22:45:06.519Z,20.40
2018-07-01T22:47:34.928Z,20.30
2018-07-01T22:50:03.308Z,20.30
2018-07-01T22:54:59.986Z,20.20
2018-07-01T22:57:28.406Z,20.20
2018-07-01T22:59:56.907Z,20.30
2018-07-01T23:03:16.067Z,20.20
2018-07-01T23:05:44.494Z,20.10
2018-07-01T23:08:12.901Z,19.70
2018-07-01T23:10:41.311Z,19.50
2018-07-01T23:13:09.928Z,19.50
2018-07-01T23:15:38.316Z,19.50
2018-07-01T23:18:06.677Z,19.50
2018-07-01T23:20:35.060Z,19.50
2018-07-01T23:23:03.506Z,19.30
2018-07-01T23:25:31.813Z,19.20
2018-07-01T23:28:00.131Z,19.20
2018-07-01T23:30:28.449Z,19.10
2018-07-01T23:32:56.746Z,18.90
2018-07-01T23:35:25.085Z,18.80
2018-07-01T23:37:53.449Z,18.90
2018-07-01T23:40:21.931Z,18.90
2018-07-01T23:42:50.252Z,19.10
2018-07-01T23:45:18.595Z,19.10
2018-07-01T23:47:46.915Z,19.20
2018-07-01T23:50:15.258Z,19.30
2018-07-01T23:52:43.586Z,19.30
2018-07-01T23:55:12.031Z,19.40
2018-07-01T23:57:40.333Z,19.40
